Time;durP1;ratioP1;P1;durP2;ratioP2;P2;SDS_P1;SDS_P2;PMS_P1;PMS_P2;Temp;Humidity;BMP_temperature;BMP_pressure;BME280_temperature;BME280_humidity;BME280_pressure;Samples;Min_cycle;Max_cycle;Signal;HPM_P1;HPM_P2
2022/03/29 00:00:59;;;;;;;12.27;3.03;;;;;;;3.26;59.23;100333.91;30871104;28;20065;-71
2022/03/29 00:16:01;;;;;;;4.73;2.30;;;;;;;3.35;60.91;100315.59;30875350;28;20064;-70
2022/03/29 00:31:21;;;;;;;4.00;2.13;;;;;;;3.36;62.82;100282.28;30871367;28;20057;-71
2022/03/29 00:46:24;;;;;;;6.77;2.30;;;;;;;3.33;64.51;100262.31;30889709;28;20681;-69
2022/03/29 01:01:26;;;;;;;3.33;2.10;;;;;;;3.27;66.94;100263.78;30865638;28;20125;-70
2022/03/29 01:31:57;;;;;;;3.47;1.57;;;;;;;3.32;69.67;100222.41;30842978;28;20050;-70
2022/03/29 01:46:59;;;;;;;6.20;2.03;;;;;;;3.31;69.70;100220.88;30758121;28;20069;-70
2022/03/29 02:02:01;;;;;;;6.43;2.27;;;;;;;3.31;70.52;100197.50;30763391;28;20047;-76
2022/03/29 02:17:03;;;;;;;6.40;2.10;;;;;;;3.32;72.04;100200.94;30794036;28;20062;-77
2022/03/29 02:32:06;;;;;;;3.70;2.30;;;;;;;3.29;73.57;100183.69;30883616;28;20047;-75
2022/03/29 02:47:09;;;;;;;2.07;1.87;;;;;;;3.28;73.65;100174.09;30898854;28;20069;-78
2022/03/29 03:02:11;;;;;;;12.00;2.77;;;;;;;3.25;76.01;100179.44;30853067;28;20511;-79
2022/03/29 03:17:14;;;;;;;5.70;2.90;;;;;;;3.17;78.60;100159.78;30877019;28;20062;-78
2022/03/29 03:32:16;;;;;;;5.87;2.20;;;;;;;3.22;78.06;100150.63;30900768;28;20061;-76
2022/03/29 03:47:19;;;;;;;7.83;2.27;;;;;;;3.39;78.67;100176.88;30868556;28;20062;-78
2022/03/29 04:02:22;;;;;;;2.27;1.70;;;;;;;3.50;78.57;100159.00;30876310;28;20430;-76
2022/03/29 04:17:24;;;;;;;8.17;2.23;;;;;;;3.55;79.25;100166.69;30873155;28;20058;-77
2022/03/29 04:32:26;;;;;;;11.70;2.27;;;;;;;3.98;78.51;100164.41;30812273;28;20047;-77
2022/03/29 04:47:28;;;;;;;5.43;1.87;;;;;;;4.56;77.10;100147.50;30810813;28;20103;-76
2022/03/29 05:02:31;;;;;;;5.47;2.20;;;;;;;5.43;73.31;100140.88;30779659;28;20201;-76
2022/03/29 05:17:34;;;;;;;6.93;2.80;;;;;;;6.15;70.32;100120.13;30822433;28;20141;-76
2022/03/29 05:32:36;;;;;;;9.53;2.40;;;;;;;6.74;66.93;100098.81;30895964;28;20061;-76
2022/03/29 06:03:00;;;;;;;7.07;2.23;;;;;;;8.58;58.70;100125.59;30987207;28;20061;-76
2022/03/29 06:18:03;;;;;;;13.30;2.77;;;;;;;9.84;54.59;100100.63;31009880;28;20058;-79
2022/03/29 06:33:06;;;;;;;11.63;2.93;;;;;;;10.85;49.08;100067.75;30995601;28;20046;-77
2022/03/29 06:48:08;;;;;;;10.33;3.43;;;;;;;12.02;46.13;100047.91;31001527;28;20053;-79
2022/03/29 07:03:10;;;;;;;9.07;3.20;;;;;;;12.85;43.36;100034.25;30997655;28;20060;-78
2022/03/29 07:18:13;;;;;;;8.93;3.20;;;;;;;11.54;45.03;100052.19;30929719;28;20396;-79
2022/03/29 07:33:19;;;;;;;9.50;3.07;;;;;;;13.31;41.95;100019.22;30842289;28;20051;-86
2022/03/29 07:48:22;;;;;;;10.43;4.03;;;;;;;14.14;40.00;100007.09;30871300;28;20141;-84
2022/03/29 08:03:45;;;;;;;20.73;4.20;;;;;;;15.53;37.41;99997.81;30877328;28;20455;-86
2022/03/29 08:18:50;;;;;;;6.30;3.70;;;;;;;15.73;37.25;99977.47;30847798;28;20459;-87
2022/03/29 08:33:55;;;;;;;9.40;4.53;;;;;;;16.66;36.36;99953.72;30862031;28;21788;-84
2022/03/29 08:49:00;;;;;;;10.98;4.10;;;;;;;17.25;35.89;99923.84;30884700;28;20058;-81
2022/03/29 09:04:07;;;;;;;12.32;4.13;;;;;;;17.46;35.56;99924.00;30868168;28;20149;-82
2022/03/29 09:19:10;;;;;;;11.65;4.63;;;;;;;17.57;35.23;99903.00;30888120;28;20061;-75
2022/03/29 09:34:18;;;;;;;7.45;4.20;;;;;;;17.21;36.22;99915.03;30861620;28;20042;-79
2022/03/29 09:49:22;;;;;;;9.35;3.65;;;;;;;17.67;35.67;99898.25;30881282;28;20157;-81
2022/03/29 10:04:29;;;;;;;10.27;3.40;;;;;;;17.75;34.89;99896.63;30882796;28;20055;-82
2022/03/29 10:19:33;;;;;;;7.68;3.85;;;;;;;18.29;33.51;99875.28;30881629;28;20149;-84
2022/03/29 10:34:40;;;;;;;6.93;3.47;;;;;;;17.36;34.41;99865.69;30874681;28;20478;-82
2022/03/29 10:49:48;;;;;;;16.02;5.30;;;;;;;17.05;34.65;99822.19;30901263;28;20133;-84
2022/03/29 11:05:08;;;;;;;12.15;4.78;;;;;;;17.66;34.46;99828.09;30882686;28;20843;-82
2022/03/29 11:20:38;;;;;;;12.35;4.25;;;;;;;18.50;33.29;99783.41;30856884;28;20140;-86
2022/03/29 11:35:40;;;;;;;12.85;4.47;;;;;;;18.23;33.98;99764.56;30856030;28;20047;-79
2022/03/29 11:50:51;;;;;;;6.30;3.72;;;;;;;17.68;35.05;99746.78;30868333;28;20510;-76
2022/03/29 12:06:09;;;;;;;13.48;4.63;;;;;;;16.90;36.75;99739.16;30850170;28;20418;-85
2022/03/29 12:21:15;;;;;;;18.38;4.90;;;;;;;16.35;37.26;99712.91;30880259;28;20521;-80
2022/03/29 12:36:18;;;;;;;10.90;5.17;;;;;;;15.98;38.66;99704.16;30963595;28;20142;-85
2022/03/29 12:51:39;;;;;;;12.00;5.37;;;;;;;16.00;39.65;99687.28;30991831;28;20417;-84
2022/03/29 13:06:44;;;;;;;11.70;4.73;;;;;;;15.94;39.73;99675.44;30999459;28;20058;-80
2022/03/29 13:21:58;;;;;;;10.67;4.70;;;;;;;15.85;39.35;99662.53;30977659;28;20576;-77
2022/03/29 13:37:00;;;;;;;11.80;5.00;;;;;;;15.86;40.35;99653.13;30901253;28;20051;-77
2022/03/29 13:52:04;;;;;;;14.30;5.00;;;;;;;15.62;39.96;99649.59;30903358;28;20400;-74
2022/03/29 14:07:06;;;;;;;15.53;5.30;;;;;;;15.65;40.06;99633.00;30883595;28;20057;-76
2022/03/29 14:22:09;;;;;;;14.43;5.07;;;;;;;15.43;41.26;99582.50;30951093;28;20514;-79
2022/03/29 14:37:12;;;;;;;12.33;5.37;;;;;;;15.29;41.67;99590.16;30975677;28;20077;-77
2022/03/29 14:52:17;;;;;;;10.33;4.93;;;;;;;15.04;41.38;99584.34;30977199;28;20054;-79
2022/03/29 15:07:22;;;;;;;11.23;4.70;;;;;;;14.78;41.96;99573.03;30985951;28;20050;-82
2022/03/29 15:22:26;;;;;;;12.00;5.97;;;;;;;14.57;42.63;99570.03;30982810;28;20050;-82
2022/03/29 15:37:29;;;;;;;14.37;5.93;;;;;;;14.39;42.65;99580.97;30994175;28;20495;-81
2022/03/29 15:52:33;;;;;;;13.57;5.93;;;;;;;14.03;43.67;99576.25;30983272;28;20138;-82
2022/03/29 16:07:41;;;;;;;18.50;7.27;;;;;;;13.65;44.80;99584.84;31000052;28;20565;-77
2022/03/29 16:22:44;;;;;;;19.40;5.97;;;;;;;13.29;46.74;99608.03;31005410;28;20074;-80
2022/03/29 16:37:47;;;;;;;26.63;8.90;;;;;;;13.03;47.72;99609.41;30991109;28;20057;-79
2022/03/29 16:52:54;;;;;;;14.80;6.93;;;;;;;12.73;52.36;99604.72;30980297;28;20056;-77
2022/03/29 17:07:57;;;;;;;13.27;6.83;;;;;;;12.30;55.85;99636.13;31013241;28;20585;-80
2022/03/29 17:23:00;;;;;;;18.07;7.30;;;;;;;11.98;58.48;99634.50;30988493;28;20062;-80
2022/03/29 17:38:03;;;;;;;17.40;7.13;;;;;;;11.60;63.43;99646.16;30953146;28;20117;-74
2022/03/29 17:53:06;;;;;;;19.47;6.83;;;;;;;11.17;66.41;99649.41;30965503;28;20039;-73
2022/03/29 18:08:09;;;;;;;22.73;7.77;;;;;;;10.76;66.61;99644.00;30982339;28;20058;-76
2022/03/29 18:23:12;;;;;;;18.43;7.20;;;;;;;10.36;71.91;99630.72;30966816;28;20065;-75
2022/03/29 18:38:17;;;;;;;14.83;6.63;;;;;;;10.08;72.69;99623.28;30972418;28;20065;-73
2022/03/29 18:53:20;;;;;;;18.40;6.90;;;;;;;9.82;74.80;99625.84;30948450;28;20428;-73
2022/03/29 19:08:24;;;;;;;18.00;6.20;;;;;;;9.60;75.50;99619.41;30969486;28;20347;-73
2022/03/29 19:23:27;;;;;;;12.70;6.57;;;;;;;9.48;74.42;99639.03;30977928;28;20057;-74
2022/03/29 19:39:17;;;;;;;21.13;6.80;;;;;;;9.23;75.19;99618.66;30957274;28;20418;-77
2022/03/29 19:54:21;;;;;;;11.77;5.97;;;;;;;9.00;74.81;99621.50;30998432;28;20431;-80
2022/03/29 20:09:27;;;;;;;13.90;6.93;;;;;;;8.67;74.90;99630.69;30979940;28;20140;-76
2022/03/29 20:24:32;;;;;;;16.03;6.53;;;;;;;8.50;74.91;99641.41;30956845;28;20054;-76
2022/03/29 20:39:34;;;;;;;16.90;6.87;;;;;;;8.26;76.88;99629.09;30947868;28;20066;-75
2022/03/29 20:54:39;;;;;;;18.50;7.17;;;;;;;8.03;79.00;99635.25;30964279;28;20482;-75
2022/03/29 21:09:41;;;;;;;21.87;8.17;;;;;;;7.83;81.04;99635.19;30947032;28;20054;-76
2022/03/29 21:24:47;;;;;;;;;;;;;;;7.69;87.01;99616.53;30896994;28;20418;-75
2022/03/29 21:39:49;;;;;;;25.33;9.20;;;;;;;7.48;87.62;99596.00;30920572;28;19922;-75
2022/03/29 21:54:51;;;;;;;26.40;9.97;;;;;;;7.46;89.57;99608.41;30920104;28;20058;-75
2022/03/29 22:09:53;;;;;;;22.73;10.47;;;;;;;7.13;89.44;99624.28;30958484;28;20065;-75
2022/03/29 22:24:55;;;;;;;19.87;9.30;;;;;;;6.88;90.00;99615.72;30895357;28;20062;-75
2022/03/29 22:39:57;;;;;;;21.90;10.17;;;;;;;6.58;97.56;99623.81;30889334;28;20050;-75
2022/03/29 22:55:05;;;;;;;20.43;10.13;;;;;;;6.68;94.95;99639.09;30872084;28;20506;-75
2022/03/29 23:10:10;;;;;;;25.13;11.57;;;;;;;6.56;95.15;99647.72;30896790;28;20175;-75
2022/03/29 23:25:12;;;;;;;20.20;11.20;;;;;;;6.46;100.00;99623.16;30896509;28;20057;-75
2022/03/29 23:40:14;;;;;;;16.90;10.30;;;;;;;6.45;99.92;99605.44;30883845;28;20062;-76
2022/03/29 23:55:18;;;;;;;25.53;13.07;;;;;;;6.26;100.00;99581.78;30869849;28;20054;-76
